Time;durP1;ratioP1;P1;durP2;ratioP2;P2;SDS_P1;SDS_P2;PMS_P1;PMS_P2;Temp;Humidity;BMP_temperature;BMP_pressure;BME280_temperature;BME280_humidity;BME280_pressure;Samples;Min_cycle;Max_cycle;Signal;HPM_P1;HPM_P2
2022/02/27 00:01:17;;;;;;;;;;;;;;;0.10;48.00;93731.56;2051971;70;20062;-70
2022/02/27 00:03:42;;;;;;;;;;;;;;;0.18;47.57;93726.97;2064760;69;20050;-71
2022/02/27 00:06:08;;;;;;;;;;;;;;;0.25;47.50;93733.94;2064683;69;20042;-69
2022/02/27 00:08:33;;;;;;;;;;;;;;;0.14;47.71;93729.25;2051994;70;20082;-69
2022/02/27 00:10:59;;;;;;;;;;;;;;;0.18;46.52;93728.97;2051886;69;20522;-70
2022/02/27 00:13:24;;;;;;;;;;;;;;;0.16;46.98;93731.50;2051471;70;20457;-68
2022/02/27 00:15:50;;;;;;;;;;;;;;;0.15;46.79;93728.00;2052006;70;20089;-70
2022/02/27 00:18:16;;;;;;;;;;;;;;;0.11;46.71;93729.53;2065032;69;20141;-71
2022/02/27 00:20:42;;;;;;;;;;;;;;;0.18;46.33;93737.25;2052366;69;20124;-70
2022/02/27 00:23:07;;;;;;;;;;;;;;;0.16;45.85;93726.72;2051847;70;20169;-73
2022/02/27 00:25:33;;;;;;;;;;;;;;;0.10;46.36;93728.81;2051802;70;20060;-70
2022/02/27 00:28:00;;;;;;;;;;;;;;;0.14;46.29;93723.72;2051896;69;20043;-70
2022/02/27 00:30:25;;;;;;;;;;;;;;;0.36;46.00;93719.97;2064835;69;20101;-69
2022/02/27 00:32:51;;;;;;;;;;;;;;;0.00;45.96;93722.09;2052038;70;20050;-70
2022/02/27 00:35:16;;;;;;;;;;;;;;;0.03;45.37;93725.84;2064805;69;20113;-69
2022/02/27 00:37:42;;;;;;;;;;;;;;;0.07;45.65;93723.53;2064674;69;20232;-70
2022/02/27 00:40:07;;;;;;;;;;;;;;;-0.10;46.24;93724.44;2064927;69;20488;-70
2022/02/27 00:42:33;;;;;;;;;;;;;;;-0.03;46.38;93723.13;2052122;70;20046;-70
2022/02/27 00:44:59;;;;;;;;;;;;;;;0.08;45.93;93722.25;2064842;69;20118;-71
2022/02/27 00:47:24;;;;;;;;;;;;;;;-0.04;45.94;93718.88;2066456;69;20086;-71
2022/02/27 00:49:50;;;;;;;;;;;;;;;0.03;47.04;93718.28;2064440;69;20189;-69
2022/02/27 00:52:21;;;;;;;;;;;;;;;-0.10;47.63;93718.91;2051823;70;20062;-71
2022/02/27 00:54:46;;;;;;;;;;;;;;;-0.28;48.16;93720.31;2064565;69;20058;-71
2022/02/27 00:57:12;;;;;;;;;;;;;;;-0.15;47.82;93718.94;2064644;69;20119;-70
2022/02/27 00:59:38;;;;;;;;;;;;;;;-0.06;46.58;93704.78;2064836;69;20055;-70
2022/02/27 01:02:03;;;;;;;;;;;;;;;-0.07;46.48;93708.81;2051469;70;20120;-72
2022/02/27 01:04:29;;;;;;;;;;;;;;;-0.33;47.58;93707.25;2065088;69;20046;-70
2022/02/27 01:06:54;;;;;;;;;;;;;;;-0.16;46.64;93696.06;2051574;69;20042;-71
2022/02/27 01:09:20;;;;;;;;;;;;;;;-0.02;46.42;93713.53;2051431;70;20138;-70
2022/02/27 01:11:45;;;;;;;;;;;;;;;-0.36;45.40;93708.31;2064986;69;20482;-71
2022/02/27 01:14:11;;;;;;;;;;;;;;;-0.37;45.21;93703.28;2052056;69;20065;-71
2022/02/27 01:16:38;;;;;;;;;;;;;;;-0.27;45.67;93704.47;2051926;69;20074;-69
2022/02/27 01:19:08;;;;;;;;;;;;;;;-0.16;45.44;93706.38;2051907;69;20127;-71
2022/02/27 01:21:34;;;;;;;;;;;;;;;-0.27;46.25;93707.25;2051929;69;20058;-71
2022/02/27 01:24:00;;;;;;;;;;;;;;;-0.34;47.31;93702.25;2064728;69;20054;-72
2022/02/27 01:26:25;;;;;;;;;;;;;;;-0.34;45.99;93702.25;2051887;69;20066;-71
2022/02/27 01:28:51;;;;;;;;;;;;;;;-0.13;45.10;93711.63;2063760;69;20481;-71
2022/02/27 01:31:16;;;;;;;;;;;;;;;-0.22;45.41;93711.97;2051545;70;20104;-71
2022/02/27 01:33:43;;;;;;;;;;;;;;;-0.17;45.30;93708.41;2065004;69;20116;-72
2022/02/27 01:36:33;;;;;;;;;;;;;;;-0.33;45.37;93709.28;2052081;70;20058;-72
2022/02/27 01:38:59;;;;;;;;;;;;;;;-0.48;45.36;93712.41;2051887;69;20061;-71
2022/02/27 01:41:25;;;;;;;;;;;;;;;-0.39;45.72;93701.03;2064844;69;20042;-70
2022/02/27 01:43:51;;;;;;;;;;;;;;;-0.66;45.07;93699.97;2064951;69;20146;-71
2022/02/27 01:46:16;;;;;;;;;;;;;;;-0.81;44.72;93683.75;2064793;69;20081;-71
2022/02/27 01:48:42;;;;;;;;;;;;;;;-0.59;44.58;93682.09;2064840;69;20135;-71
2022/02/27 01:51:07;;;;;;;;;;;;;;;-0.46;44.05;93687.00;2064467;69;20077;-70
2022/02/27 01:53:33;;;;;;;;;;;;;;;-0.41;43.84;93677.91;2051812;70;20627;-70
2022/02/27 01:55:59;;;;;;;;;;;;;;;-0.85;44.92;93679.75;2051688;70;20039;-73
2022/02/27 01:58:25;;;;;;;;;;;;;;;-0.43;44.49;93677.69;2064525;69;20490;-71
2022/02/27 02:00:51;;;;;;;;;;;;;;;-0.55;44.18;93671.47;2064451;69;20078;-72
2022/02/27 02:03:17;;;;;;;;;;;;;;;-0.64;44.98;93678.09;2051682;69;20179;-70
2022/02/27 02:05:42;;;;;;;;;;;;;;;-0.43;44.02;93672.88;2051821;70;20057;-69
2022/02/27 02:08:08;;;;;;;;;;;;;;;-0.46;44.05;93676.69;2064787;69;20090;-71
2022/02/27 02:10:33;;;;;;;;;;;;;;;-0.34;43.79;93677.34;2067131;69;20150;-71
2022/02/27 02:13:03;;;;;;;;;;;;;;;-0.37;43.28;93673.59;2067266;69;20412;-71
2022/02/27 02:15:28;;;;;;;;;;;;;;;-0.39;44.01;93672.63;2067385;69;20060;-71
2022/02/27 02:17:54;;;;;;;;;;;;;;;-0.28;43.70;93675.28;2066001;69;20102;-72
2022/02/27 02:20:20;;;;;;;;;;;;;;;-0.40;42.99;93666.34;2066408;69;20049;-71
2022/02/27 02:22:54;;;;;;;;;;;;;;;-0.66;43.48;93657.75;2067273;69;20048;-72
2022/02/27 02:25:19;;;;;;;;;;;;;;;-0.49;43.51;93663.91;2067236;69;20557;-71
2022/02/27 02:27:46;;;;;;;;;;;;;;;-0.41;43.16;93658.53;2067339;69;20045;-71
2022/02/27 02:30:12;;;;;;;;;;;;;;;-0.53;42.55;93655.88;2067357;69;20425;-72
2022/02/27 02:32:45;;;;;;;;;;;;;;;-0.43;43.17;93661.06;2067299;69;20048;-70
2022/02/27 02:35:11;;;;;;;;;;;;;;;-0.65;42.61;93657.22;2068112;69;20041;-71
2022/02/27 02:37:37;;;;;;;;;;;;;;;-0.45;43.00;93660.84;2066914;69;20130;-70
2022/02/27 02:40:04;;;;;;;;;;;;;;;-0.61;42.37;93666.00;2067692;69;20044;-71
2022/02/27 02:42:29;;;;;;;;;;;;;;;-0.42;41.97;93663.31;2067403;69;20049;-71
2022/02/27 02:44:55;;;;;;;;;;;;;;;-0.26;41.68;93664.44;2067618;69;20055;-71
2022/02/27 02:47:21;;;;;;;;;;;;;;;-0.38;41.36;93660.28;2067907;69;20048;-70
2022/02/27 02:49:50;;;;;;;;;;;;;;;-0.38;41.59;93663.78;2067093;69;20487;-70
2022/02/27 02:52:16;;;;;;;;;;;;;;;-0.26;41.34;93667.22;2067373;69;20121;-70
2022/02/27 02:54:41;;;;;;;;;;;;;;;-0.52;41.89;93659.38;2067285;69;20804;-71
2022/02/27 02:57:07;;;;;;;;;;;;;;;-0.41;41.65;93656.53;2067945;69;20061;-71
2022/02/27 02:59:32;;;;;;;;;;;;;;;-0.44;41.66;93659.59;2067841;69;20140;-72
2022/02/27 03:01:58;;;;;;;;;;;;;;;-0.52;41.87;93662.16;2067666;69;20065;-72
2022/02/27 03:04:23;;;;;;;;;;;;;;;-0.45;41.54;93656.06;2067865;69;20549;-72
2022/02/27 03:06:49;;;;;;;;;;;;;;;-0.60;41.58;93664.72;2067747;69;20045;-72
2022/02/27 03:09:14;;;;;;;;;;;;;;;-0.94;41.63;93664.22;2067698;69;20056;-71
2022/02/27 03:11:39;;;;;;;;;;;;;;;-0.60;40.91;93666.75;2053772;69;20511;-72
2022/02/27 03:14:05;;;;;;;;;;;;;;;-0.61;40.50;93666.00;2051810;70;20505;-71
2022/02/27 03:16:31;;;;;;;;;;;;;;;-0.75;40.52;93666.38;2052111;70;20483;-72
2022/02/27 03:18:56;;;;;;;;;;;;;;;-0.74;40.71;93670.63;2052113;70;20055;-71
2022/02/27 03:21:22;;;;;;;;;;;;;;;-0.77;40.94;93673.16;2052079;70;20464;-70
2022/02/27 03:23:49;;;;;;;;;;;;;;;-0.65;40.46;93673.06;2051922;70;20081;-70
2022/02/27 03:26:16;;;;;;;;;;;;;;;-0.64;40.05;93671.81;2052034;70;20111;-70
2022/02/27 03:28:41;;;;;;;;;;;;;;;-0.77;40.77;93675.94;2052192;70;20069;-70
2022/02/27 03:31:07;;;;;;;;;;;;;;;-0.51;40.45;93675.47;2052100;70;20701;-70
2022/02/27 03:33:32;;;;;;;;;;;;;;;-0.26;40.06;93679.03;2051695;70;20492;-71
2022/02/27 03:35:57;;;;;;;;;;;;;;;-0.61;39.71;93679.06;2052072;70;20062;-71
2022/02/27 03:38:23;;;;;;;;;;;;;;;-0.63;39.93;93685.13;2052154;69;20042;-71
2022/02/27 03:40:48;;;;;;;;;;;;;;;-0.53;39.73;93683.53;2051949;70;20109;-71
2022/02/27 03:43:14;;;;;;;;;;;;;;;-0.38;39.42;93677.63;2051811;70;20057;-71
2022/02/27 03:45:39;;;;;;;;;;;;;;;-0.39;39.61;93672.63;2051637;69;20058;-71
2022/02/27 03:48:05;;;;;;;;;;;;;;;-0.46;39.25;93676.69;2052345;69;20045;-70
2022/02/27 03:50:30;;;;;;;;;;;;;;;-0.39;39.18;93673.38;2064797;69;20156;-70
2022/02/27 03:52:56;;;;;;;;;;;;;;;-0.34;39.06;93674.59;2051922;70;20049;-69
2022/02/27 03:55:21;;;;;;;;;;;;;;;-0.41;39.10;93673.16;2052211;70;20058;-71
2022/02/27 03:57:47;;;;;;;;;;;;;;;-0.30;38.82;93675.06;2051743;70;20081;-70
2022/02/27 04:00:13;;;;;;;;;;;;;;;-0.24;39.51;93675.00;2051920;70;20483;-71
2022/02/27 04:02:40;;;;;;;;;;;;;;;-0.68;39.29;93677.63;2052049;70;20054;-74
2022/02/27 04:05:05;;;;;;;;;;;;;;;-0.49;39.20;93682.50;2051955;69;20069;-69
2022/02/27 04:07:31;;;;;;;;;;;;;;;-0.68;39.13;93680.41;2065146;69;20098;-70
2022/02/27 04:10:00;;;;;;;;;;;;;;;-0.48;39.43;93681.25;2051958;70;20082;-69
2022/02/27 04:12:26;;;;;;;;;;;;;;;-0.59;39.39;93687.63;2051978;70;20046;-70
2022/02/27 04:14:52;;;;;;;;;;;;;;;-0.36;39.41;93686.19;2064980;69;20400;-70
2022/02/27 04:17:18;;;;;;;;;;;;;;;-0.34;38.93;93691.19;2052107;70;20054;-70
2022/02/27 04:19:43;;;;;;;;;;;;;;;-0.59;38.89;93691.13;2051982;70;20184;-70
2022/02/27 04:22:08;;;;;;;;;;;;;;;-0.62;39.01;93697.69;2051225;70;20556;-73
2022/02/27 04:24:34;;;;;;;;;;;;;;;-0.81;39.14;93696.81;2051421;69;20053;-70
2022/02/27 04:27:00;;;;;;;;;;;;;;;-0.93;39.59;93700.91;2052138;69;20047;-69
2022/02/27 04:29:26;;;;;;;;;;;;;;;-0.76;39.51;93698.81;2052223;70;20155;-69
2022/02/27 04:31:51;;;;;;;;;;;;;;;-0.88;39.50;93700.88;2052284;70;20116;-69
2022/02/27 04:34:18;;;;;;;;;;;;;;;-0.71;39.45;93697.25;2065003;69;20070;-68
2022/02/27 04:36:43;;;;;;;;;;;;;;;-0.87;39.41;93693.31;2051978;69;20247;-69
2022/02/27 04:39:09;;;;;;;;;;;;;;;-0.90;39.30;93706.19;2051890;69;20134;-70
2022/02/27 04:41:35;;;;;;;;;;;;;;;-0.91;39.57;93703.94;2051972;69;20283;-70
2022/02/27 04:44:01;;;;;;;;;;;;;;;-1.06;39.75;93698.72;2052243;69;20055;-69
2022/02/27 04:46:27;;;;;;;;;;;;;;;-1.12;39.97;93689.72;2052398;70;20065;-69
2022/02/27 04:48:53;;;;;;;;;;;;;;;-1.16;40.03;93694.75;2051779;70;20070;-70
2022/02/27 04:51:18;;;;;;;;;;;;;;;-1.04;39.38;93707.25;2051960;70;20047;-69
2022/02/27 04:53:45;;;;;;;;;;;;;;;-1.23;39.89;93698.81;2051968;69;20123;-69
2022/02/27 04:56:11;;;;;;;;;;;;;;;-0.94;39.62;93688.38;2065087;69;20053;-70
2022/02/27 04:58:37;;;;;;;;;;;;;;;-0.95;39.92;93697.91;2053797;69;20047;-72
2022/02/27 05:01:03;;;;;;;;;;;;;;;-0.79;39.65;93695.03;2051813;70;20490;-70
2022/02/27 05:03:28;;;;;;;;;;;;;;;-0.72;39.25;93693.00;2051686;69;20465;-71
2022/02/27 05:05:56;;;;;;;;;;;;;;;-0.78;39.05;93699.31;2052223;70;20050;-71
2022/02/27 05:08:23;;;;;;;;;;;;;;;-0.68;38.59;93694.22;2051707;69;20051;-70
2022/02/27 05:10:48;;;;;;;;;;;;;;;-0.92;39.02;93694.88;2064721;69;20505;-74
2022/02/27 05:13:14;;;;;;;;;;;;;;;-0.83;39.11;93702.09;2064664;69;20058;-69
2022/02/27 05:15:39;;;;;;;;;;;;;;;-0.77;39.13;93700.81;2053311;69;20745;-73
2022/02/27 05:18:05;;;;;;;;;;;;;;;-0.69;39.21;93695.47;2052072;69;20050;-70
2022/02/27 05:20:30;;;;;;;;;;;;;;;-0.51;38.89;93699.59;2051900;70;20042;-70
2022/02/27 05:22:55;;;;;;;;;;;;;;;-0.57;38.82;93705.19;2051639;69;20043;-69
2022/02/27 05:25:22;;;;;;;;;;;;;;;-0.71;38.24;93709.06;2051928;69;20043;-74
2022/02/27 05:27:49;;;;;;;;;;;;;;;-0.84;38.93;93704.13;2051819;70;20070;-71
2022/02/27 05:30:14;;;;;;;;;;;;;;;-0.63;38.64;93704.50;2064944;69;20055;-69
2022/02/27 05:32:40;;;;;;;;;;;;;;;-0.72;38.14;93690.97;2065238;69;20048;-71
2022/02/27 05:35:06;;;;;;;;;;;;;;;-0.85;38.77;93693.56;2052337;70;20038;-70
2022/02/27 05:37:31;;;;;;;;;;;;;;;-1.03;38.98;93692.94;2051950;69;20138;-70
2022/02/27 05:39:57;;;;;;;;;;;;;;;-0.94;38.79;93702.19;2051946;70;20177;-72
2022/02/27 05:42:22;;;;;;;;;;;;;;;-0.90;38.39;93702.66;2052167;69;20043;-72
2022/02/27 05:44:48;;;;;;;;;;;;;;;-0.66;38.16;93702.75;2052350;70;20051;-71
2022/02/27 05:47:13;;;;;;;;;;;;;;;-0.54;38.14;93706.19;2052153;70;20043;-70
2022/02/27 05:49:39;;;;;;;;;;;;;;;-0.79;38.30;93710.88;2051868;69;20093;-70
2022/02/27 05:52:04;;;;;;;;;;;;;;;-1.03;38.36;93715.03;2052015;70;20078;-70
2022/02/27 05:54:30;;;;;;;;;;;;;;;-0.89;38.37;93707.66;2051668;70;20098;-73
2022/02/27 05:56:55;;;;;;;;;;;;;;;-1.02;38.29;93710.25;2052046;70;20046;-70
2022/02/27 05:59:21;;;;;;;;;;;;;;;-1.17;38.18;93710.59;2051804;69;20086;-70
2022/02/27 06:01:47;;;;;;;;;;;;;;;-1.02;38.25;93710.25;2052005;70;20098;-70
2022/02/27 06:04:12;;;;;;;;;;;;;;;-0.97;37.97;93705.97;2051835;70;20050;-69
2022/02/27 06:06:38;;;;;;;;;;;;;;;-0.88;37.92;93711.94;2052043;70;20176;-69
2022/02/27 06:09:04;;;;;;;;;;;;;;;-1.21;37.94;93718.41;2051918;69;20141;-71
2022/02/27 06:11:29;;;;;;;;;;;;;;;-1.24;38.41;93724.94;2051669;70;20043;-70
2022/02/27 06:13:55;;;;;;;;;;;;;;;-1.31;38.47;93729.00;2052194;70;20045;-70
2022/02/27 06:16:20;;;;;;;;;;;;;;;-1.24;38.04;93724.94;2051859;70;20484;-70
2022/02/27 06:18:45;;;;;;;;;;;;;;;-1.16;38.32;93738.97;2051317;70;20481;-70
2022/02/27 06:21:11;;;;;;;;;;;;;;;-1.48;38.36;93728.31;2052511;69;20042;-71
2022/02/27 06:23:36;;;;;;;;;;;;;;;-1.55;38.75;93737.13;2052207;70;20428;-71
2022/02/27 06:26:02;;;;;;;;;;;;;;;-1.42;38.84;93734.56;2052044;70;20473;-70
2022/02/27 06:28:27;;;;;;;;;;;;;;;-1.42;39.10;93742.88;2051902;70;20116;-71
2022/02/27 06:30:53;;;;;;;;;;;;;;;-1.28;38.88;93741.06;2052140;69;20148;-71
2022/02/27 06:33:18;;;;;;;;;;;;;;;-1.23;38.29;93750.56;2051911;70;20124;-71
2022/02/27 06:35:43;;;;;;;;;;;;;;;-1.26;38.37;93746.06;2051834;69;20414;-71
2022/02/27 06:38:09;;;;;;;;;;;;;;;-1.58;38.50;93746.41;2052020;69;20069;-71
2022/02/27 06:40:34;;;;;;;;;;;;;;;-1.49;38.78;93753.69;2051664;70;20047;-70
2022/02/27 06:43:06;;;;;;;;;;;;;;;-1.44;38.86;93756.41;2051346;70;20059;-70
2022/02/27 06:45:32;;;;;;;;;;;;;;;-1.17;38.27;93745.78;2051869;70;20186;-70
2022/02/27 06:47:58;;;;;;;;;;;;;;;-1.37;38.54;93755.16;2052154;69;20181;-70
2022/02/27 06:50:23;;;;;;;;;;;;;;;-1.49;38.28;93750.91;2052193;70;20175;-70
2022/02/27 06:52:49;;;;;;;;;;;;;;;-1.51;38.25;93748.66;2065125;69;20475;-70
2022/02/27 06:55:15;;;;;;;;;;;;;;;-1.35;38.59;93749.84;2052207;69;20051;-69
2022/02/27 06:57:44;;;;;;;;;;;;;;;-1.52;38.29;93740.88;2052346;70;20078;-69
2022/02/27 07:00:09;;;;;;;;;;;;;;;-1.18;38.35;93747.03;2052429;70;20482;-71
2022/02/27 07:02:35;;;;;;;;;;;;;;;-1.14;37.85;93753.81;2052310;70;20134;-71
2022/02/27 07:05:01;;;;;;;;;;;;;;;-0.90;37.94;93746.91;2052594;70;20054;-70
2022/02/27 07:07:26;;;;;;;;;;;;;;;-1.20;37.59;93753.06;2052250;70;20082;-70
2022/02/27 07:09:51;;;;;;;;;;;;;;;-1.14;37.56;93753.81;2052578;69;20478;-71
2022/02/27 07:12:17;;;;;;;;;;;;;;;-0.93;37.34;93747.91;2052440;70;20504;-71
2022/02/27 07:14:42;;;;;;;;;;;;;;;-0.91;37.27;93750.94;2065185;69;20043;-70
2022/02/27 07:17:09;;;;;;;;;;;;;;;-0.74;36.92;93751.56;2052458;70;20081;-70
2022/02/27 07:19:36;;;;;;;;;;;;;;;-0.93;36.66;93754.19;2052476;70;20531;-70
2022/02/27 07:22:02;;;;;;;;;;;;;;;-1.14;37.11;93753.06;2052751;69;20042;-69
2022/02/27 07:24:27;;;;;;;;;;;;;;;-1.04;36.92;93757.03;2051898;70;20057;-72
2022/02/27 07:26:53;;;;;;;;;;;;;;;-1.01;36.45;93750.44;2051878;70;20157;-71
2022/02/27 07:29:18;;;;;;;;;;;;;;;-0.72;36.17;93753.84;2052037;69;20498;-73
2022/02/27 07:31:43;;;;;;;;;;;;;;;-0.82;36.47;93756.91;2065135;69;20054;-73
2022/02/27 07:34:12;;;;;;;;;;;;;;;-0.91;36.58;93764.75;2052600;70;20042;-71
2022/02/27 07:36:37;;;;;;;;;;;;;;;-0.63;36.09;93757.03;2052253;70;20066;-72
2022/02/27 07:39:03;;;;;;;;;;;;;;;-0.80;36.38;93767.44;2052080;70;20053;-72
2022/02/27 07:41:28;;;;;;;;;;;;;;;-0.77;36.79;93761.66;2052241;69;20149;-70
2022/02/27 07:43:54;;;;;;;;;;;;;;;-0.57;36.61;93768.06;2051991;70;20179;-71
2022/02/27 07:46:19;;;;;;;;;;;;;;;-0.61;36.30;93767.59;2052374;70;20070;-72
2022/02/27 07:48:45;;;;;;;;;;;;;;;-0.61;36.25;93770.34;2052209;70;20039;-73
2022/02/27 07:51:10;;;;;;;;;;;;;;;-0.75;36.16;93774.22;2052261;70;20045;-71
2022/02/27 07:53:36;;;;;;;;;;;;;;;-0.57;35.94;93766.03;2052229;70;20043;-72
2022/02/27 07:56:01;;;;;;;;;;;;;;;-0.85;36.29;93773.75;2052010;69;20170;-71
2022/02/27 07:58:27;;;;;;;;;;;;;;;-0.84;36.05;93773.25;2051952;70;20153;-70
2022/02/27 08:00:52;;;;;;;;;;;;;;;-0.92;36.44;93777.81;2051794;69;20050;-70
2022/02/27 08:03:17;;;;;;;;;;;;;;;-0.44;36.15;93765.47;2051911;70;20081;-70
2022/02/27 08:05:43;;;;;;;;;;;;;;;-0.57;36.39;93768.81;2052009;69;20058;-71
2022/02/27 08:08:08;;;;;;;;;;;;;;;-0.47;35.95;93768.50;2052214;70;20085;-71
2022/02/27 08:10:34;;;;;;;;;;;;;;;-0.48;36.55;93772.53;2052097;69;20050;-71
2022/02/27 08:12:59;;;;;;;;;;;;;;;-0.46;36.60;93765.22;2052239;70;20659;-71
2022/02/27 08:15:25;;;;;;;;;;;;;;;-0.47;36.76;93762.97;2051938;70;20090;-69
2022/02/27 08:17:53;;;;;;;;;;;;;;;-0.37;36.77;93764.91;2052674;69;20057;-71
2022/02/27 08:20:19;;;;;;;;;;;;;;;-0.21;36.73;93765.31;2052064;70;20098;-70
2022/02/27 08:22:44;;;;;;;;;;;;;;;-0.42;36.46;93774.00;2052024;70;20157;-69
2022/02/27 08:25:12;;;;;;;;;;;;;;;-0.27;36.46;93760.56;2052326;70;20195;-70
2022/02/27 08:27:37;;;;;;;;;;;;;;;-0.08;36.48;93763.44;2052459;70;20141;-71
2022/02/27 08:30:03;;;;;;;;;;;;;;;0.23;37.91;93766.94;2052437;69;20062;-72
2022/02/27 08:32:29;;;;;;;;;;;;;;;0.63;37.79;93762.50;2052348;70;20128;-71
2022/02/27 08:34:54;;;;;;;;;;;;;;;1.01;36.98;93765.34;2052437;70;20550;-72
2022/02/27 08:37:20;;;;;;;;;;;;;;;1.46;36.78;93753.66;2052512;70;20050;-72
2022/02/27 08:39:45;;;;;;;;;;;;;;;1.84;36.84;93748.06;2052042;70;20090;-72
2022/02/27 08:42:10;;;;;;;;;;;;;;;2.11;35.94;93752.41;2052497;70;20058;-74
2022/02/27 08:44:36;;;;;;;;;;;;;;;2.32;35.06;93758.13;2052368;70;20045;-72
2022/02/27 08:47:02;;;;;;;;;;;;;;;3.04;35.34;93752.50;2065376;69;20403;-71
2022/02/27 08:49:27;;;;;;;;;;;;;;;3.35;36.13;93750.84;2052403;69;20050;-71
2022/02/27 08:51:53;;;;;;;;;;;;;;;3.88;34.44;93750.66;2065510;69;20050;-73
2022/02/27 08:54:18;;;;;;;;;;;;;;;4.70;32.24;93753.22;2052462;70;20113;-72
2022/02/27 08:56:44;;;;;;;;;;;;;;;3.77;32.17;93753.72;2052601;70;20050;-70
2022/02/27 08:59:09;;;;;;;;;;;;;;;4.34;32.61;93745.50;2052539;70;20170;-72
2022/02/27 09:01:35;;;;;;;;;;;;;;;4.73;33.24;93750.09;2052399;70;20042;-72
2022/02/27 09:04:00;;;;;;;;;;;;;;;5.63;32.95;93755.19;2052541;70;20050;-73
2022/02/27 09:06:25;;;;;;;;;;;;;;;5.32;30.74;93749.50;2052547;70;20105;-72
2022/02/27 09:08:51;;;;;;;;;;;;;;;6.01;32.25;93742.09;2052590;70;20165;-73
2022/02/27 09:11:17;;;;;;;;;;;;;;;6.07;30.04;93739.88;2052254;69;20049;-74
2022/02/27 09:13:42;;;;;;;;;;;;;;;6.42;29.99;93737.50;2052378;70;20042;-72
2022/02/27 09:16:07;;;;;;;;;;;;;;;7.06;29.59;93741.16;2052391;70;20066;-71
2022/02/27 09:18:33;;;;;;;;;;;;;;;6.45;30.31;93735.63;2052325;70;20090;-71
2022/02/27 09:20:58;;;;;;;;;;;;;;;7.28;30.29;93736.81;2052416;70;20047;-72
2022/02/27 09:23:24;;;;;;;;;;;;;;;7.61;29.16;93738.38;2052472;69;20474;-72
2022/02/27 09:25:49;;;;;;;;;;;;;;;7.58;28.74;93724.75;2052278;70;20047;-73
2022/02/27 09:28:16;;;;;;;;;;;;;;;8.17;28.77;93718.66;2065342;69;20062;-71
2022/02/27 09:30:42;;;;;;;;;;;;;;;8.09;28.85;93715.13;2052463;70;20053;-71
2022/02/27 09:33:08;;;;;;;;;;;;;;;7.94;29.25;93701.97;2052330;70;20050;-72
2022/02/27 09:35:33;;;;;;;;;;;;;;;7.84;28.71;93701.84;2052325;70;20478;-72
2022/02/27 09:37:59;;;;;;;;;;;;;;;8.75;29.49;93691.28;2052412;69;20049;-74
2022/02/27 09:40:25;;;;;;;;;;;;;;;8.92;29.13;93696.16;2065301;69;20433;-71
2022/02/27 09:42:52;;;;;;;;;;;;;;;9.35;29.10;93694.78;2052319;70;20046;-72
2022/02/27 09:45:18;;;;;;;;;;;;;;;9.45;28.44;93691.31;2065313;69;20467;-74
2022/02/27 09:47:44;;;;;;;;;;;;;;;8.79;28.22;93700.03;2052319;70;20096;-71
2022/02/27 09:50:09;;;;;;;;;;;;;;;9.21;28.51;93681.63;2052301;70;20054;-72
2022/02/27 09:52:35;;;;;;;;;;;;;;;7.93;28.76;93685.72;2052261;70;20058;-73
2022/02/27 09:55:00;;;;;;;;;;;;;;;9.25;28.94;93693.94;2052253;70;20125;-73
2022/02/27 09:57:26;;;;;;;;;;;;;;;9.30;27.74;93684.53;2052284;70;20047;-72
2022/02/27 09:59:51;;;;;;;;;;;;;;;10.12;28.76;93680.47;2052356;69;20046;-73
2022/02/27 10:02:17;;;;;;;;;;;;;;;10.79;27.99;93684.16;2052359;70;20049;-72
2022/02/27 10:04:43;;;;;;;;;;;;;;;10.07;27.36;93683.53;2052416;70;20042;-72
2022/02/27 10:07:12;;;;;;;;;;;;;;;10.71;27.36;93681.44;2052037;69;20499;-73
2022/02/27 10:09:39;;;;;;;;;;;;;;;9.46;27.12;93681.53;2051750;70;20253;-72
2022/02/27 10:12:18;;;;;;;;;;;;;;;10.82;26.86;93677.34;2051690;70;20050;-73
2022/02/27 10:15:00;;;;;;;;;;;;;;;10.11;25.39;93675.41;2051808;70;20047;-73
2022/02/27 10:17:30;;;;;;;;;;;;;;;10.48;26.76;93664.19;2052355;69;20056;-72
2022/02/27 10:19:56;;;;;;;;;;;;;;;11.80;26.08;93662.66;2052281;70;20108;-73
2022/02/27 10:22:32;;;;;;;;;;;;;;;12.23;25.06;93662.13;2052009;70;20047;-74
2022/02/27 10:24:58;;;;;;;;;;;;;;;11.31;25.39;93655.56;2052086;70;20039;-75
2022/02/27 10:27:23;;;;;;;;;;;;;;;12.42;24.33;93665.66;2052070;70;20039;-73
2022/02/27 10:29:48;;;;;;;;;;;;;;;12.60;23.79;93671.06;2052457;70;20505;-73
2022/02/27 10:32:14;;;;;;;;;;;;;;;12.19;25.31;93654.16;2065295;69;20054;-74
2022/02/27 10:34:40;;;;;;;;;;;;;;;12.51;24.95;93643.59;2052245;70;20500;-75
2022/02/27 10:37:05;;;;;;;;;;;;;;;12.95;24.73;93643.06;2052069;70;20486;-74
2022/02/27 10:39:43;;;;;;;;;;;;;;;13.61;24.68;93640.38;2052115;69;20050;-75
2022/02/27 10:42:09;;;;;;;;;;;;;;;13.36;23.48;93637.28;2052323;70;20062;-72
2022/02/27 10:44:35;;;;;;;;;;;;;;;14.07;23.51;93626.97;2052298;70;20054;-74
2022/02/27 10:47:14;;;;;;;;;;;;;;;13.76;23.62;93627.88;2052344;70;20058;-74
2022/02/27 10:49:40;;;;;;;;;;;;;;;11.95;24.74;93622.13;2052037;69;20043;-73
2022/02/27 10:52:25;;;;;;;;;;;;;;;13.95;23.21;93619.16;2052384;69;20042;-71
2022/02/27 10:54:52;;;;;;;;;;;;;;;14.01;22.82;93615.25;2052056;70;20463;-72
2022/02/27 10:57:27;;;;;;;;;;;;;;;15.48;22.63;93619.09;2065230;69;20112;-72
2022/02/27 10:59:55;;;;;;;;;;;;;;;15.27;21.80;93620.03;2052177;70;20133;-71
2022/02/27 11:02:28;;;;;;;;;;;;;;;14.05;22.29;93621.16;2052104;69;20414;-72
2022/02/27 11:04:54;;;;;;;;;;;;;;;14.66;22.81;93617.19;2052179;69;20112;-71
2022/02/27 11:07:19;;;;;;;;;;;;;;;16.19;21.28;93622.38;2052124;70;20047;-72
2022/02/27 11:09:45;;;;;;;;;;;;;;;16.97;20.30;93625.13;2051950;69;20050;-72
2022/02/27 11:12:14;;;;;;;;;;;;;;;17.43;20.58;93614.63;2052144;70;20137;-73
2022/02/27 11:14:40;;;;;;;;;;;;;;;14.87;21.42;93604.19;2052215;70;20116;-71
2022/02/27 11:17:06;;;;;;;;;;;;;;;16.32;20.75;93609.56;2052151;69;20068;-72
2022/02/27 11:19:32;;;;;;;;;;;;;;;16.84;19.02;93611.63;2052228;70;20413;-71
2022/02/27 11:21:58;;;;;;;;;;;;;;;16.49;21.11;93609.81;2052204;70;20046;-72
2022/02/27 11:24:24;;;;;;;;;;;;;;;19.16;18.79;93595.59;2052124;69;20086;-72
2022/02/27 11:26:50;;;;;;;;;;;;;;;20.78;18.04;93601.41;2051991;70;20050;-74
2022/02/27 11:29:15;;;;;;;;;;;;;;;22.75;16.50;93600.13;2052199;69;20050;-72
2022/02/27 11:31:41;;;;;;;;;;;;;;;23.65;16.06;93602.69;2052106;69;20055;-72
2022/02/27 11:34:13;;;;;;;;;;;;;;;23.81;15.48;93597.34;2052388;70;20493;-72
2022/02/27 11:36:39;;;;;;;;;;;;;;;23.03;14.37;93589.47;2052632;70;20062;-72
2022/02/27 11:39:05;;;;;;;;;;;;;;;24.18;14.25;93593.22;2052607;70;20043;-73
2022/02/27 11:41:46;;;;;;;;;;;;;;;22.36;15.50;93595.34;2052469;70;20482;-73
2022/02/27 11:44:13;;;;;;;;;;;;;;;20.93;16.77;93587.63;2052567;69;20051;-74
2022/02/27 11:46:41;;;;;;;;;;;;;;;23.51;16.45;93595.13;2052594;70;20066;-73
2022/02/27 11:49:07;;;;;;;;;;;;;;;21.61;15.42;93591.47;2052523;70;20049;-73
2022/02/27 11:51:35;;;;;;;;;;;;;;;23.84;15.31;93585.22;2052570;70;20054;-74
2022/02/27 11:54:05;;;;;;;;;;;;;;;23.65;15.39;93589.03;2051151;70;20054;-71
2022/02/27 11:56:31;;;;;;;;;;;;;;;21.80;15.96;93587.81;2051398;70;20074;-72
2022/02/27 11:58:56;;;;;;;;;;;;;;;21.70;16.47;93586.75;2051594;70;20517;-71
2022/02/27 12:01:40;;;;;;;;;;;;;;;23.58;15.04;93579.47;2052235;70;20402;-73
2022/02/27 12:04:21;;;;;;;;;;;;;;;22.67;15.77;93576.91;2052418;69;20195;-73
2022/02/27 12:06:56;;;;;;;;;;;;;;;22.33;15.20;93572.34;2052443;70;20046;-72
2022/02/27 12:09:21;;;;;;;;;;;;;;;23.71;15.11;93557.56;2052343;70;20621;-71
2022/02/27 12:11:47;;;;;;;;;;;;;;;20.93;16.69;93556.88;2052403;70;20046;-70
2022/02/27 12:14:12;;;;;;;;;;;;;;;22.81;16.02;93557.22;2052601;70;20046;-71
2022/02/27 12:16:40;;;;;;;;;;;;;;;23.30;15.47;93552.88;2052442;70;20058;-74
2022/02/27 12:19:25;;;;;;;;;;;;;;;24.21;14.35;93551.59;2052407;70;20053;-71
2022/02/27 12:21:57;;;;;;;;;;;;;;;22.98;14.66;93550.56;2052398;69;20486;-73
2022/02/27 12:24:22;;;;;;;;;;;;;;;22.52;15.06;93544.94;2052296;70;20264;-72
2022/02/27 12:26:49;;;;;;;;;;;;;;;23.33;15.01;93543.63;2052303;70;20245;-72
2022/02/27 12:29:19;;;;;;;;;;;;;;;23.98;14.97;93543.84;2052360;70;20145;-73
2022/02/27 12:31:44;;;;;;;;;;;;;;;25.41;13.86;93544.78;2052477;70;20046;-70
2022/02/27 12:34:11;;;;;;;;;;;;;;;23.17;14.23;93537.44;2052550;70;20166;-71
2022/02/27 12:36:38;;;;;;;;;;;;;;;23.17;14.60;93536.72;2065252;69;20438;-72
2022/02/27 12:39:07;;;;;;;;;;;;;;;25.01;13.52;93536.78;2052343;69;20043;-73
2022/02/27 12:41:33;;;;;;;;;;;;;;;22.17;14.64;93525.19;2052276;70;20074;-72
2022/02/27 12:43:59;;;;;;;;;;;;;;;22.92;15.12;93521.69;2052206;70;20511;-72